createdAt,value
2023-05-24T00:00:22.379Z,101027.28
2023-05-24T00:02:49.253Z,101023.75
2023-05-24T00:05:16.812Z,101020.44
2023-05-24T00:07:43.669Z,101027.53
2023-05-24T00:10:11.057Z,101030.22
2023-05-24T00:12:37.754Z,101031.09
2023-05-24T00:15:04.812Z,101030.31
2023-05-24T00:17:31.500Z,101033.72
2023-05-24T00:19:58.214Z,101031.09
2023-05-24T00:22:25.192Z,101032.09
2023-05-24T00:24:52.074Z,101028.59
2023-05-24T00:27:18.788Z,101028.66
2023-05-24T00:29:45.585Z,101024.19
2023-05-24T00:32:12.290Z,101023.59
2023-05-24T00:34:39.003Z,101027.94
2023-05-24T00:37:05.701Z,101036.09
2023-05-24T00:39:32.339Z,101022.91
2023-05-24T00:41:58.970Z,101018.38
2023-05-24T00:44:26.423Z,101023.75
2023-05-24T00:46:53.074Z,101023.81
2023-05-24T00:49:19.931Z,101029.28
2023-05-24T00:51:46.805Z,101024.00
2023-05-24T00:54:15.173Z,101022.34
2023-05-24T00:56:42.969Z,101023.16
2023-05-24T00:59:09.727Z,101023.44
2023-05-24T01:01:37.365Z,101024.50
2023-05-24T01:04:04.247Z,101020.06
2023-05-24T01:06:33.149Z,101024.72
2023-05-24T01:09:10.358Z,101023.91
2023-05-24T01:12:12.359Z,101027.44
2023-05-24T01:14:59.846Z,101027.44
2023-05-24T01:17:49.240Z,101026.78
2023-05-24T01:20:17.772Z,101022.44
2023-05-24T01:23:05.221Z,101033.97
2023-05-24T01:25:48.807Z,101041.84
2023-05-24T01:28:17.938Z,101041.94
2023-05-24T01:30:44.981Z,101044.53
2023-05-24T01:33:11.896Z,101043.72
2023-05-24T01:35:41.342Z,101038.44
2023-05-24T01:38:08.706Z,101039.41
2023-05-24T01:40:35.954Z,101044.66
2023-05-24T01:43:18.883Z,101049.84
2023-05-24T01:46:10.164Z,101035.81
2023-05-24T01:48:54.293Z,101036.69
2023-05-24T01:51:23.997Z,101041.13
2023-05-24T01:53:51.394Z,101039.41
2023-05-24T01:56:20.380Z,101041.13
2023-05-24T01:58:47.638Z,101044.66
2023-05-24T02:01:14.672Z,101047.31
2023-05-24T02:03:41.527Z,101051.69
2023-05-24T02:06:08.391Z,101045.59
2023-05-24T02:08:35.074Z,101042.97
2023-05-24T02:11:02.700Z,101047.34
2023-05-24T02:13:29.494Z,101046.56
2023-05-24T02:15:56.310Z,101042.97
2023-05-24T02:18:22.978Z,101047.41
2023-05-24T02:20:49.722Z,101051.03
2023-05-24T02:23:16.474Z,101045.75
2023-05-24T02:25:43.191Z,101047.59
2023-05-24T02:28:09.858Z,101045.94
2023-05-24T02:30:36.613Z,101050.22
2023-05-24T02:33:03.453Z,101053.84
2023-05-24T02:35:30.349Z,101050.31
2023-05-24T02:37:58.659Z,101048.59
2023-05-24T02:40:26.209Z,101053.88
2023-05-24T02:42:52.882Z,101050.34
2023-05-24T02:45:19.493Z,101044.25
2023-05-24T02:47:46.937Z,101050.41
2023-05-24T02:50:13.645Z,101042.50
2023-05-24T02:52:40.432Z,101048.59
2023-05-24T02:55:07.408Z,101040.69
2023-05-24T02:57:34.353Z,101042.47
2023-05-24T03:00:01.019Z,101051.22
2023-05-24T03:02:29.382Z,101045.06
2023-05-24T03:04:56.228Z,101052.06
2023-05-24T03:07:22.913Z,101049.44
2023-05-24T03:09:49.574Z,101047.63
2023-05-24T03:12:16.240Z,101057.28
2023-05-24T03:14:42.908Z,101057.25
2023-05-24T03:17:09.577Z,101057.19
2023-05-24T03:19:37.429Z,101053.69
2023-05-24T03:22:04.141Z,101063.31
2023-05-24T03:24:31.757Z,101065.03
2023-05-24T03:26:58.471Z,101066.75
2023-05-24T03:29:25.120Z,101068.50
2023-05-24T03:31:51.835Z,101068.44
2023-05-24T03:34:18.541Z,101063.09
2023-05-24T03:36:45.246Z,101065.69
2023-05-24T03:39:11.889Z,101069.13
2023-05-24T03:41:38.522Z,101070.00
2023-05-24T03:44:05.501Z,101067.38
2023-05-24T03:46:32.340Z,101076.94
2023-05-24T03:48:59.078Z,101070.75
2023-05-24T03:51:29.516Z,101068.91
2023-05-24T03:53:57.341Z,101069.72
2023-05-24T03:56:24.643Z,101065.31
2023-05-24T03:58:52.401Z,101077.44
2023-05-24T04:01:33.325Z,101063.38
2023-05-24T04:04:02.300Z,101064.19
2023-05-24T04:06:30.053Z,101061.53
2023-05-24T04:08:57.855Z,101071.09
2023-05-24T04:11:28.232Z,101067.53
2023-05-24T04:13:55.999Z,101071.88
2023-05-24T04:16:27.542Z,101073.66
2023-05-24T04:18:57.628Z,101077.94
2023-05-24T04:21:24.428Z,101082.25
2023-05-24T04:23:51.205Z,101083.16
2023-05-24T04:26:18.387Z,101078.66
2023-05-24T04:28:46.770Z,101083.00
2023-05-24T04:31:13.900Z,101093.56
2023-05-24T04:33:40.993Z,101095.25
2023-05-24T04:36:08.390Z,101096.19
2023-05-24T04:38:36.186Z,101093.56
2023-05-24T04:41:03.157Z,101098.81
2023-05-24T04:43:29.895Z,101097.91
2023-05-24T04:45:56.615Z,101107.50
2023-05-24T04:48:24.511Z,101112.84
2023-05-24T04:50:55.992Z,101118.06
2023-05-24T04:53:23.256Z,101116.38
2023-05-24T04:55:50.550Z,101119.81
2023-05-24T04:58:17.446Z,101123.16
2023-05-24T05:00:44.767Z,101128.25
2023-05-24T05:03:11.755Z,101129.00
2023-05-24T05:05:38.664Z,101134.19
2023-05-24T05:08:06.963Z,101130.47
2023-05-24T05:10:33.636Z,101133.91
2023-05-24T05:13:00.297Z,101124.94
2023-05-24T05:15:26.983Z,101132.91
2023-05-24T05:17:53.682Z,101129.22
2023-05-24T05:20:20.618Z,101129.09
2023-05-24T05:22:48.114Z,101139.47
2023-05-24T05:25:14.751Z,101125.16
2023-05-24T05:27:41.623Z,101135.59
2023-05-24T05:30:08.785Z,101138.13
2023-05-24T05:32:37.764Z,101142.78
2023-05-24T05:35:05.199Z,101139.00
2023-05-24T05:37:31.974Z,101141.22
2023-05-24T05:39:58.649Z,101136.94
2023-05-24T05:42:25.630Z,101143.47
2023-05-24T05:44:52.788Z,101144.72
2023-05-24T05:47:19.536Z,101144.63
2023-05-24T05:49:46.222Z,101147.53
2023-05-24T05:52:12.938Z,101149.47
2023-05-24T05:54:39.646Z,101151.13
2023-05-24T05:57:08.257Z,101143.59
2023-05-24T05:59:36.279Z,101142.34
2023-05-24T06:02:04.116Z,101145.56
2023-05-24T06:04:30.906Z,101150.34
2023-05-24T06:06:57.595Z,101145.00
2023-05-24T06:09:24.250Z,101153.47
2023-05-24T06:11:50.924Z,101153.91
2023-05-24T06:16:46.171Z,101156.25
2023-05-24T06:19:13.631Z,101157.63
2023-05-24T06:21:47.128Z,101160.13
2023-05-24T06:24:15.176Z,101155.53
2023-05-24T06:26:42.166Z,101166.72
2023-05-24T06:29:09.815Z,101168.19
2023-05-24T06:31:36.588Z,101165.25
2023-05-24T06:34:04.669Z,101173.44
2023-05-24T06:36:35.983Z,101174.00
2023-05-24T06:39:03.993Z,101178.25
2023-05-24T06:41:30.792Z,101172.16
2023-05-24T06:43:57.659Z,101183.75
2023-05-24T06:46:24.387Z,101184.41
2023-05-24T06:48:51.240Z,101181.25
2023-05-24T06:51:17.968Z,101191.53
2023-05-24T06:53:44.632Z,101187.19
2023-05-24T06:56:11.358Z,101186.91
2023-05-24T06:58:38.017Z,101195.91
2023-05-24T07:01:05.191Z,101199.59
2023-05-24T07:03:32.496Z,101201.66
2023-05-24T07:05:59.241Z,101202.88
2023-05-24T07:08:25.902Z,101198.31
2023-05-24T07:10:54.063Z,101210.44
2023-05-24T07:13:20.946Z,101208.34
2023-05-24T07:15:47.750Z,101205.84
2023-05-24T07:18:14.565Z,101218.88
2023-05-24T07:20:41.708Z,101213.91
2023-05-24T07:23:09.202Z,101217.53
2023-05-24T07:25:35.882Z,101222.34
2023-05-24T07:28:02.603Z,101224.84
2023-05-24T07:30:32.794Z,101221.63
2023-05-24T07:33:00.108Z,101225.06
2023-05-24T07:35:28.668Z,101226.03
2023-05-24T07:37:55.607Z,101226.06
2023-05-24T07:40:23.309Z,101230.03
2023-05-24T07:42:50.290Z,101238.06
2023-05-24T07:45:17.002Z,101243.72
2023-05-24T07:47:43.788Z,101238.53
2023-05-24T07:50:11.674Z,101243.06
2023-05-24T07:52:38.852Z,101248.16
2023-05-24T07:55:06.444Z,101248.91
2023-05-24T07:57:33.651Z,101244.72
2023-05-24T08:00:07.111Z,101251.00
2023-05-24T08:02:34.970Z,101257.97
2023-05-24T08:05:05.093Z,101254.16
2023-05-24T08:07:31.779Z,101262.91
2023-05-24T08:09:58.459Z,101261.91
2023-05-24T08:12:26.151Z,101266.19
2023-05-24T08:14:52.945Z,101266.13
2023-05-24T08:17:19.629Z,101257.91
2023-05-24T08:19:46.300Z,101270.16
2023-05-24T08:22:13.106Z,101262.44
2023-05-24T08:24:39.779Z,101266.47
2023-05-24T08:27:07.437Z,101265.31
2023-05-24T08:29:34.832Z,101272.00
2023-05-24T08:32:01.531Z,101277.81
2023-05-24T08:34:28.592Z,101269.88
2023-05-24T08:36:55.268Z,101278.50
2023-05-24T08:39:21.936Z,101276.19
2023-05-24T08:42:00.985Z,101280.06
2023-05-24T08:44:41.890Z,101275.53
2023-05-24T08:47:11.848Z,101273.94
2023-05-24T08:49:38.828Z,101272.59
2023-05-24T08:52:07.653Z,101275.31
2023-05-24T08:54:37.759Z,101276.50
2023-05-24T08:57:04.606Z,101282.09
2023-05-24T08:59:31.458Z,101280.63
2023-05-24T09:02:00.146Z,101288.94
2023-05-24T09:04:27.929Z,101289.13
2023-05-24T09:06:55.479Z,101291.31
2023-05-24T09:09:22.392Z,101297.47
2023-05-24T09:11:50.483Z,101293.81
2023-05-24T09:14:17.167Z,101288.22
2023-05-24T09:16:44.617Z,101282.88
2023-05-24T09:19:11.892Z,101288.66
2023-05-24T09:21:38.577Z,101292.53
2023-05-24T09:24:08.526Z,101297.75
2023-05-24T09:26:36.696Z,101290.06
2023-05-24T09:29:07.360Z,101298.44
2023-05-24T09:31:35.173Z,101293.16
2023-05-24T09:34:02.195Z,101300.78
2023-05-24T09:36:33.171Z,101298.38
2023-05-24T09:39:07.929Z,101299.38
2023-05-24T09:41:34.586Z,101302.56
2023-05-24T09:44:01.948Z,101301.47
2023-05-24T09:46:29.862Z,101302.63
2023-05-24T09:49:00.258Z,101301.88
2023-05-24T09:51:27.205Z,101305.75
2023-05-24T09:53:57.226Z,101307.44
2023-05-24T09:56:24.853Z,101304.03
2023-05-24T09:58:51.734Z,101305.97
2023-05-24T10:01:19.184Z,101309.59
2023-05-24T10:03:57.152Z,101316.00
2023-05-24T10:06:24.088Z,101320.44
2023-05-24T10:08:51.977Z,101316.69
2023-05-24T10:11:19.035Z,101309.94
2023-05-24T10:13:45.821Z,101316.78
2023-05-24T10:16:12.935Z,101323.03
2023-05-24T10:18:39.871Z,101323.47
2023-05-24T10:21:08.549Z,101322.28
2023-05-24T10:23:43.566Z,101327.28
2023-05-24T10:26:14.201Z,101335.53
2023-05-24T10:28:48.825Z,101333.69
2023-05-24T10:31:18.544Z,101324.13
2023-05-24T10:33:48.400Z,101325.22
2023-05-24T10:36:16.213Z,101326.13
2023-05-24T10:38:43.661Z,101329.00
2023-05-24T10:41:13.050Z,101332.28
2023-05-24T10:43:40.579Z,101328.41
2023-05-24T10:46:09.196Z,101321.78
2023-05-24T10:48:40.777Z,101327.44
2023-05-24T10:51:39.529Z,101324.78
2023-05-24T10:54:13.790Z,101325.72
2023-05-24T10:56:48.762Z,101319.78
2023-05-24T10:59:37.512Z,101323.31
2023-05-24T11:02:16.553Z,101324.97
2023-05-24T11:04:46.926Z,101329.75
2023-05-24T11:07:15.263Z,101329.13
2023-05-24T11:09:46.524Z,101331.09
2023-05-24T11:12:17.880Z,101339.03
2023-05-24T11:14:52.414Z,101338.31
2023-05-24T11:17:21.456Z,101338.75
2023-05-24T11:19:51.090Z,101346.19
2023-05-24T11:22:18.087Z,101345.19
2023-05-24T11:24:45.118Z,101349.28
2023-05-24T11:27:13.109Z,101346.41
2023-05-24T11:29:44.977Z,101346.81
2023-05-24T11:32:17.062Z,101344.16
2023-05-24T11:34:46.412Z,101352.81
2023-05-24T11:37:15.287Z,101350.75
2023-05-24T11:39:44.608Z,101347.34
2023-05-24T11:42:11.546Z,101345.88
2023-05-24T11:44:38.637Z,101354.28
2023-05-24T11:47:07.731Z,101351.75
2023-05-24T11:49:34.781Z,101351.13
2023-05-24T11:52:01.799Z,101351.81
2023-05-24T11:54:29.407Z,101350.81
2023-05-24T11:56:56.278Z,101354.84
2023-05-24T11:59:25.585Z,101354.09
2023-05-24T12:01:58.946Z,101349.31
2023-05-24T12:04:26.145Z,101352.97
2023-05-24T12:06:52.897Z,101355.88
2023-05-24T12:09:19.597Z,101358.19
2023-05-24T12:11:50.686Z,101354.47
2023-05-24T12:14:23.532Z,101362.91
2023-05-24T12:16:50.171Z,101363.16
2023-05-24T12:19:32.474Z,101361.88
2023-05-24T12:22:00.607Z,101375.44
2023-05-24T12:24:27.786Z,101372.34
2023-05-24T12:26:58.685Z,101368.75
2023-05-24T12:29:25.352Z,101365.41
2023-05-24T12:31:52.834Z,101362.38
2023-05-24T12:34:20.458Z,101368.31
2023-05-24T12:36:47.771Z,101359.97
2023-05-24T12:39:31.013Z,101367.50
2023-05-24T12:41:58.834Z,101367.72
2023-05-24T12:44:27.057Z,101373.69
2023-05-24T12:46:54.727Z,101371.13
2023-05-24T12:49:22.421Z,101375.88
2023-05-24T12:51:49.693Z,101366.94
2023-05-24T12:54:18.937Z,101379.34
2023-05-24T12:56:45.930Z,101375.06
2023-05-24T12:59:12.709Z,101375.13
2023-05-24T13:01:39.535Z,101382.09
2023-05-24T13:04:06.367Z,101376.03
2023-05-24T13:06:33.139Z,101377.22
2023-05-24T13:08:59.842Z,101376.44
2023-05-24T13:11:27.635Z,101373.97
2023-05-24T13:13:54.431Z,101371.59
2023-05-24T13:16:21.596Z,101371.94
2023-05-24T13:18:48.659Z,101375.63
2023-05-24T13:21:15.351Z,101375.50
2023-05-24T13:23:43.835Z,101376.88
2023-05-24T13:26:11.104Z,101375.81
2023-05-24T13:28:40.486Z,101376.91
2023-05-24T13:31:12.496Z,101376.34
2023-05-24T13:33:40.336Z,101374.28
2023-05-24T13:36:08.371Z,101377.63
2023-05-24T13:38:35.086Z,101375.59
2023-05-24T13:41:01.822Z,101380.16
2023-05-24T13:43:28.493Z,101380.94
2023-05-24T13:45:55.724Z,101368.84
2023-05-24T13:48:22.647Z,101375.00
2023-05-24T13:50:50.182Z,101377.91
2023-05-24T13:53:16.884Z,101372.91
2023-05-24T13:55:43.864Z,101372.28
2023-05-24T13:58:10.638Z,101376.09
2023-05-24T14:00:37.861Z,101381.34
2023-05-24T14:03:06.016Z,101380.88
2023-05-24T14:05:33.191Z,101376.78
2023-05-24T14:08:06.213Z,101368.81
2023-05-24T14:10:37.086Z,101366.97
2023-05-24T14:15:37.900Z,101378.97
2023-05-24T14:18:08.436Z,101372.22
2023-05-24T14:20:40.034Z,101373.81
2023-05-24T14:23:07.802Z,101375.41
2023-05-24T14:25:34.551Z,101373.25
2023-05-24T14:28:01.545Z,101379.53
2023-05-24T14:30:28.216Z,101368.03
2023-05-24T14:32:54.996Z,101379.47
2023-05-24T14:35:21.777Z,101383.81
2023-05-24T14:37:48.527Z,101381.63
2023-05-24T14:40:17.657Z,101381.09
2023-05-24T14:42:45.884Z,101385.50
2023-05-24T14:45:12.988Z,101379.50
2023-05-24T14:47:39.709Z,101385.41
2023-05-24T14:50:07.064Z,101377.16
2023-05-24T14:52:33.957Z,101384.50
2023-05-24T14:55:00.817Z,101367.63
2023-05-24T14:57:27.611Z,101361.59
2023-05-24T14:59:54.289Z,101360.34
2023-05-24T15:02:21.060Z,101362.47
2023-05-24T15:04:47.743Z,101363.81
2023-05-24T15:07:14.527Z,101351.25
2023-05-24T15:09:41.218Z,101362.53
2023-05-24T15:12:08.622Z,101350.94
2023-05-24T15:14:35.337Z,101359.78
2023-05-24T15:17:02.223Z,101363.25
2023-05-24T15:19:28.913Z,101351.25
2023-05-24T15:21:55.669Z,101358.53
2023-05-24T15:24:22.328Z,101362.13
2023-05-24T15:26:49.212Z,101365.03
2023-05-24T15:29:17.250Z,101357.94
2023-05-24T15:31:44.238Z,101363.19
2023-05-24T15:34:11.087Z,101369.41
2023-05-24T15:36:38.612Z,101362.47
2023-05-24T15:39:08.166Z,101370.25
2023-05-24T15:41:35.616Z,101365.81
2023-05-24T15:44:08.595Z,101365.69
2023-05-24T15:46:36.584Z,101371.47
2023-05-24T15:49:05.256Z,101367.91
2023-05-24T15:52:02.620Z,101359.41
2023-05-24T15:54:18.717Z,101355.88
2023-05-24T15:56:45.417Z,101368.13
2023-05-24T15:59:12.126Z,101358.28
2023-05-24T16:01:38.909Z,101366.81
2023-05-24T16:04:05.678Z,101367.19
2023-05-24T16:06:32.385Z,101360.16
2023-05-24T16:08:59.277Z,101365.63
2023-05-24T16:11:25.950Z,101358.91
2023-05-24T16:13:54.236Z,101363.09
2023-05-24T16:16:23.546Z,101365.25
2023-05-24T16:18:50.385Z,101359.47
2023-05-24T16:21:17.277Z,101363.09
2023-05-24T16:23:43.971Z,101359.19
2023-05-24T16:26:10.678Z,101359.97
2023-05-24T16:28:37.350Z,101356.00
2023-05-24T16:31:04.182Z,101362.84
2023-05-24T16:33:30.873Z,101364.56
2023-05-24T16:35:58.648Z,101372.31
2023-05-24T16:38:26.550Z,101365.34
2023-05-24T16:40:53.978Z,101371.78
2023-05-24T16:43:21.601Z,101370.75
2023-05-24T16:45:48.443Z,101371.78
2023-05-24T16:48:15.393Z,101372.59
2023-05-24T16:50:42.507Z,101372.44
2023-05-24T16:53:09.372Z,101375.31
2023-05-24T16:55:36.252Z,101380.72
2023-05-24T16:58:03.032Z,101375.00
2023-05-24T17:00:29.730Z,101372.97
2023-05-24T17:02:59.406Z,101382.16
2023-05-24T17:05:26.288Z,101378.50
2023-05-24T17:07:52.984Z,101386.63
2023-05-24T17:10:19.714Z,101382.16
2023-05-24T17:12:47.458Z,101375.94
2023-05-24T17:15:14.222Z,101375.50
2023-05-24T17:17:40.975Z,101370.19
2023-05-24T17:20:08.012Z,101374.16
2023-05-24T17:22:34.774Z,101378.75
2023-05-24T17:25:01.707Z,101381.00
2023-05-24T17:27:28.403Z,101381.84
2023-05-24T17:29:55.058Z,101383.56
2023-05-24T17:32:21.883Z,101385.16
2023-05-24T17:34:48.666Z,101387.41
2023-05-24T17:37:15.372Z,101398.19
2023-05-24T17:39:43.029Z,101395.31
2023-05-24T17:42:14.235Z,101393.69
2023-05-24T17:44:40.992Z,101392.97
2023-05-24T17:47:07.673Z,101399.94
2023-05-24T17:49:34.357Z,101404.63
2023-05-24T17:52:01.350Z,101406.59
2023-05-24T17:54:28.274Z,101406.41
2023-05-24T17:56:54.978Z,101409.56
2023-05-24T17:59:21.668Z,101411.97
2023-05-24T18:01:48.473Z,101409.59
2023-05-24T18:04:15.243Z,101409.72
2023-05-24T18:06:42.006Z,101410.50
2023-05-24T18:09:08.716Z,101413.28
2023-05-24T18:11:35.487Z,101407.88
2023-05-24T18:14:03.949Z,101414.91
2023-05-24T18:16:31.508Z,101417.69
2023-05-24T18:18:58.365Z,101413.56
2023-05-24T18:21:25.066Z,101418.25
2023-05-24T18:23:51.733Z,101421.00
2023-05-24T18:26:18.392Z,101421.16
2023-05-24T18:28:45.116Z,101424.34
2023-05-24T18:31:12.058Z,101429.09
2023-05-24T18:33:39.101Z,101438.00
2023-05-24T18:36:06.446Z,101429.47
2023-05-24T18:38:36.912Z,101433.09
2023-05-24T18:41:06.308Z,101424.44
2023-05-24T18:43:33.551Z,101424.28
2023-05-24T18:46:00.381Z,101431.50
2023-05-24T18:48:27.227Z,101429.91
2023-05-24T18:50:54.090Z,101426.63
2023-05-24T18:53:20.855Z,101423.25
2023-05-24T18:55:47.695Z,101429.72
2023-05-24T18:58:14.788Z,101429.88
2023-05-24T19:00:41.779Z,101429.13
2023-05-24T19:03:10.997Z,101430.16
2023-05-24T19:05:38.993Z,101433.94
2023-05-24T19:08:07.661Z,101439.69
2023-05-24T19:10:34.578Z,101436.31
2023-05-24T19:13:02.343Z,101439.28
2023-05-24T19:15:29.592Z,101447.34
2023-05-24T19:17:58.194Z,101447.72
2023-05-24T19:20:25.619Z,101447.19
2023-05-24T19:22:52.715Z,101450.00
2023-05-24T19:25:24.295Z,101460.66
2023-05-24T19:30:24.431Z,101453.72
2023-05-24T19:32:51.426Z,101450.25
2023-05-24T19:35:18.393Z,101461.09
2023-05-24T19:37:45.484Z,101459.53
2023-05-24T19:40:12.454Z,101452.47
2023-05-24T19:42:39.362Z,101456.16
2023-05-24T19:45:06.925Z,101459.03
2023-05-24T19:47:33.696Z,101468.16
2023-05-24T19:50:00.436Z,101470.09
2023-05-24T19:52:27.244Z,101471.09
2023-05-24T19:54:53.982Z,101472.97
2023-05-24T19:57:20.931Z,101481.06
2023-05-24T19:59:48.870Z,101482.94
2023-05-24T20:02:15.961Z,101476.91
2023-05-24T20:04:43.981Z,101477.94
2023-05-24T20:07:13.473Z,101481.50
2023-05-24T20:09:43.417Z,101480.56
2023-05-24T20:12:11.168Z,101482.13
2023-05-24T20:14:37.867Z,101490.06
2023-05-24T20:17:05.017Z,101494.50
2023-05-24T20:19:31.730Z,101490.09
2023-05-24T20:21:58.424Z,101488.31
2023-05-24T20:24:25.134Z,101488.38
2023-05-24T20:26:51.818Z,101486.53
2023-05-24T20:29:18.553Z,101490.94
2023-05-24T20:31:47.060Z,101489.22
2023-05-24T20:34:13.881Z,101492.66
2023-05-24T20:36:42.074Z,101485.50
2023-05-24T20:39:10.362Z,101485.50
2023-05-24T20:41:37.058Z,101482.66
2023-05-24T20:44:03.863Z,101496.88
2023-05-24T20:46:33.235Z,101490.75
2023-05-24T20:49:00.398Z,101494.31
2023-05-24T20:51:27.307Z,101491.59
2023-05-24T20:53:54.435Z,101493.56
2023-05-24T20:56:23.052Z,101487.38
2023-05-24T20:58:52.928Z,101482.94
2023-05-24T21:01:20.905Z,101486.53
2023-05-24T21:03:47.817Z,101484.78
2023-05-24T21:06:14.568Z,101488.41
2023-05-24T21:08:42.517Z,101483.34
2023-05-24T21:11:09.155Z,101487.78
2023-05-24T21:13:35.810Z,101499.38
2023-05-24T21:16:03.141Z,101501.22
2023-05-24T21:18:29.805Z,101504.78
2023-05-24T21:20:56.505Z,101510.19
2023-05-24T21:23:26.818Z,101510.25
2023-05-24T21:25:53.681Z,101514.66
2023-05-24T21:28:20.391Z,101519.94
2023-05-24T21:30:47.074Z,101525.16
2023-05-24T21:33:13.898Z,101521.69
2023-05-24T21:35:40.591Z,101530.56
2023-05-24T21:38:07.318Z,101536.66
2023-05-24T21:40:34.008Z,101530.56
2023-05-24T21:43:00.705Z,101538.47
2023-05-24T21:45:27.426Z,101537.56
2023-05-24T21:47:59.284Z,101539.25
2023-05-24T21:50:26.148Z,101540.13
2023-05-24T21:52:52.878Z,101541.91
2023-05-24T21:55:19.693Z,101538.38
2023-05-24T21:57:47.982Z,101541.97
2023-05-24T22:00:20.115Z,101542.97
2023-05-24T22:02:49.755Z,101544.72
2023-05-24T22:05:16.773Z,101547.34
2023-05-24T22:07:46.218Z,101550.06
2023-05-24T22:10:13.193Z,101538.59
2023-05-24T22:12:39.894Z,101550.94
2023-05-24T22:15:07.059Z,101555.34
2023-05-24T22:17:37.129Z,101557.13
2023-05-24T22:20:07.219Z,101549.25
2023-05-24T22:22:34.042Z,101543.09
2023-05-24T22:25:02.114Z,101557.28
2023-05-24T22:27:29.673Z,101553.75
2023-05-24T22:29:56.373Z,101550.31
2023-05-24T22:32:23.152Z,101554.81
2023-05-24T22:34:49.868Z,101551.28
2023-05-24T22:37:16.945Z,101561.00
2023-05-24T22:39:45.096Z,101556.66
2023-05-24T22:42:11.992Z,101549.69
2023-05-24T22:44:38.661Z,101555.00
2023-05-24T22:47:05.370Z,101555.88
2023-05-24T22:49:39.919Z,101548.06
2023-05-24T22:52:07.056Z,101556.03
2023-05-24T22:54:33.716Z,101562.19
2023-05-24T22:57:00.959Z,101565.78
2023-05-24T22:59:27.766Z,101563.19
2023-05-24T23:01:54.540Z,101565.06
2023-05-24T23:04:23.389Z,101563.31
2023-05-24T23:06:52.667Z,101565.16
2023-05-24T23:09:34.173Z,101560.75
2023-05-24T23:12:02.787Z,101569.59
2023-05-24T23:14:30.466Z,101561.69
2023-05-24T23:17:02.474Z,101567.03
2023-05-24T23:19:30.116Z,101564.41
2023-05-24T23:21:56.823Z,101567.06
2023-05-24T23:24:24.138Z,101558.28
2023-05-24T23:26:50.964Z,101565.31
2023-05-24T23:29:17.640Z,101563.63
2023-05-24T23:31:44.387Z,101560.97
2023-05-24T23:34:11.152Z,101568.91
2023-05-24T23:36:37.847Z,101568.94
2023-05-24T23:39:04.529Z,101564.56
2023-05-24T23:41:31.484Z,101568.09
2023-05-24T23:43:58.156Z,101568.09
2023-05-24T23:46:24.839Z,101569.00
2023-05-24T23:48:56.248Z,101570.78
2023-05-24T23:51:23.353Z,101576.94
2023-05-24T23:53:49.989Z,101577.84
2023-05-24T23:56:16.709Z,101580.50
2023-05-24T23:58:43.920Z,101577.00
